Time;durP1;ratioP1;P1;durP2;ratioP2;P2;SDS_P1;SDS_P2;PMS_P1;PMS_P2;Temp;Humidity;BMP_temperature;BMP_pressure;BME280_temperature;BME280_humidity;BME280_pressure;Samples;Min_cycle;Max_cycle;Signal;HPM_P1;HPM_P2
2021/01/18 00:02:51;;;;;;;25.57;16.20;;;;;;;;;;5023311;28;20603;-76
2021/01/18 00:05:55;;;;;;;28.40;17.13;;;;;;;;;;5015355;28;20600;-76
2021/01/18 00:08:59;;;;;;;26.43;16.50;;;;;;;;;;5004308;28;20648;-76
2021/01/18 00:12:03;;;;;;;25.67;16.07;;;;;;;;;;4993448;28;20961;-75
2021/01/18 00:15:08;;;;;;;27.80;15.27;;;;;;;;;;5023233;28;20595;-76
2021/01/18 00:18:12;;;;;;;25.93;15.90;;;;;;;;;;5015361;28;21085;-75
2021/01/18 00:21:17;;;;;;;25.93;16.00;;;;;;;;;;5016208;28;20552;-75
2021/01/18 00:24:21;;;;;;;25.23;15.60;;;;;;;;;;5015587;28;20994;-76
2021/01/18 00:27:25;;;;;;;22.87;14.50;;;;;;;;;;4976330;28;21186;-76
2021/01/18 00:30:29;;;;;;;24.17;15.53;;;;;;;;;;4976379;28;20625;-76
2021/01/18 00:33:33;;;;;;;24.80;15.47;;;;;;;;;;4977441;28;20555;-76
2021/01/18 00:36:44;;;;;;;25.27;15.40;;;;;;;;;;4976154;28;20605;-76
2021/01/18 00:39:48;;;;;;;24.17;14.97;;;;;;;;;;5002576;28;20651;-76
2021/01/18 00:42:53;;;;;;;21.63;14.93;;;;;;;;;;5015354;28;20596;-77
2021/01/18 00:45:57;;;;;;;24.83;16.03;;;;;;;;;;5016094;28;20544;-77
2021/01/18 00:49:01;;;;;;;24.93;15.03;;;;;;;;;;5015222;28;20620;-77
2021/01/18 00:52:06;;;;;;;22.40;14.80;;;;;;;;;;4998730;28;20632;-77
2021/01/18 00:55:12;;;;;;;20.30;14.17;;;;;;;;;;4995244;28;20625;-77
2021/01/18 00:58:30;;;;;;;22.77;14.73;;;;;;;;;;4995311;28;21339;-77
2021/01/18 01:01:52;;;;;;;21.53;13.80;;;;;;;;;;4995126;28;20929;-77
2021/01/18 01:04:57;;;;;;;20.90;14.10;;;;;;;;;;4973270;28;20992;-77
2021/01/18 01:08:01;;;;;;;20.43;13.73;;;;;;;;;;4995408;28;20542;-77
2021/01/18 01:11:06;;;;;;;19.37;12.83;;;;;;;;;;4994806;28;20542;-77
2021/01/18 01:14:10;;;;;;;21.17;13.60;;;;;;;;;;4995771;28;20916;-77
2021/01/18 01:17:15;;;;;;;19.00;12.10;;;;;;;;;;4995332;28;20545;-77
2021/01/18 01:20:21;;;;;;;23.40;13.43;;;;;;;;;;4994912;28;20613;-77
2021/01/18 01:23:25;;;;;;;19.27;13.17;;;;;;;;;;4996779;28;20597;-77
2021/01/18 01:26:29;;;;;;;18.77;12.03;;;;;;;;;;5014888;28;20670;-77
2021/01/18 01:29:33;;;;;;;17.43;11.53;;;;;;;;;;5002855;28;20624;-77
2021/01/18 01:32:43;;;;;;;16.10;11.60;;;;;;;;;;5015168;28;20960;-77
2021/01/18 01:35:47;;;;;;;17.13;11.90;;;;;;;;;;4964282;28;20539;-77
2021/01/18 01:38:51;;;;;;;15.77;11.17;;;;;;;;;;4975554;28;20637;-77
2021/01/18 01:41:55;;;;;;;16.57;12.17;;;;;;;;;;4975321;28;20554;-77
2021/01/18 01:44:59;;;;;;;19.60;12.27;;;;;;;;;;4975525;28;20610;-77
2021/01/18 01:48:05;;;;;;;17.37;11.50;;;;;;;;;;4975988;28;20555;-77
2021/01/18 01:51:09;;;;;;;13.30;9.93;;;;;;;;;;4974883;28;20558;-77
2021/01/18 01:54:14;;;;;;;15.83;11.17;;;;;;;;;;4989545;28;20601;-77
2021/01/18 01:57:18;;;;;;;18.63;11.10;;;;;;;;;;4994384;28;20546;-77
2021/01/18 02:00:23;;;;;;;15.80;10.73;;;;;;;;;;4982960;28;20617;-77
2021/01/18 02:03:40;;;;;;;14.43;10.00;;;;;;;;;;5001159;28;21226;-77
2021/01/18 02:06:45;;;;;;;16.40;10.90;;;;;;;;;;5013921;28;21107;-76
2021/01/18 02:09:49;;;;;;;13.60;10.50;;;;;;;;;;5013366;28;20624;-77
2021/01/18 02:13:01;;;;;;;17.97;10.20;;;;;;;;;;5014595;28;20541;-77
2021/01/18 02:16:26;;;;;;;17.67;11.77;;;;;;;;;;5013294;28;20596;-76
2021/01/18 02:19:53;;;;;;;17.27;11.37;;;;;;;;;;5014295;28;21213;-76
2021/01/18 02:23:25;;;;;;;17.70;12.23;;;;;;;;;;5014176;28;20921;-77
2021/01/18 02:26:54;;;;;;;17.77;12.03;;;;;;;;;;4975315;28;20609;-76
2021/01/18 02:30:28;;;;;;;16.73;10.20;;;;;;;;;;4973930;28;20621;-76
2021/01/18 02:34:09;;;;;;;16.47;10.50;;;;;;;;;;4974485;28;21109;-76
2021/01/18 02:37:17;;;;;;;17.10;10.17;;;;;;;;;;5009490;28;20581;-76
2021/01/18 02:40:59;;;;;;;18.87;12.23;;;;;;;;;;5012854;28;20616;-76
2021/01/18 02:44:07;;;;;;;19.30;12.20;;;;;;;;;;5013058;28;20961;-76
2021/01/18 02:47:13;;;;;;;16.97;10.87;;;;;;;;;;5013732;28;20544;-76
2021/01/18 02:50:19;;;;;;;18.90;11.67;;;;;;;;;;5012841;28;20613;-76
2021/01/18 02:53:23;;;;;;;17.47;11.27;;;;;;;;;;5008423;28;21195;-76
2021/01/18 02:56:35;;;;;;;20.63;12.43;;;;;;;;;;4993828;28;20558;-76
2021/01/18 02:59:41;;;;;;;20.27;11.20;;;;;;;;;;4994478;28;20621;-75
2021/01/18 03:03:09;;;;;;;19.60;11.63;;;;;;;;;;4974671;28;21098;-76
2021/01/18 03:06:22;;;;;;;20.00;12.00;;;;;;;;;;4973707;28;20551;-76
2021/01/18 03:09:42;;;;;;;20.83;12.93;;;;;;;;;;4976301;28;20993;-76
2021/01/18 03:12:51;;;;;;;20.13;12.57;;;;;;;;;;4992897;28;20567;-76
2021/01/18 03:16:00;;;;;;;19.57;12.77;;;;;;;;;;4992771;28;20897;-76
2021/01/18 03:19:08;;;;;;;25.07;13.37;;;;;;;;;;4993423;28;20621;-76
2021/01/18 03:22:24;;;;;;;24.27;13.47;;;;;;;;;;4993207;28;20601;-76
2021/01/18 03:25:28;;;;;;;25.93;13.47;;;;;;;;;;4981750;28;20590;-76
2021/01/18 03:28:32;;;;;;;22.33;12.47;;;;;;;;;;4998885;28;21020;-76
2021/01/18 03:31:36;;;;;;;20.37;13.20;;;;;;;;;;4973478;28;20547;-76
2021/01/18 03:34:40;;;;;;;23.10;13.67;;;;;;;;;;4962389;28;20880;-76
2021/01/18 03:37:54;;;;;;;19.63;12.83;;;;;;;;;;4974181;28;20611;-76
2021/01/18 03:40:58;;;;;;;24.83;13.53;;;;;;;;;;4973660;28;21094;-75
2021/01/18 03:44:02;;;;;;;23.50;12.90;;;;;;;;;;4974172;28;20923;-76
2021/01/18 03:47:07;;;;;;;23.07;13.13;;;;;;;;;;4974383;28;20551;-75
2021/01/18 03:50:12;;;;;;;22.63;13.63;;;;;;;;;;5006727;28;21221;-75
2021/01/18 03:53:17;;;;;;;23.00;12.80;;;;;;;;;;5009070;28;20601;-75
2021/01/18 03:56:21;;;;;;;19.27;12.93;;;;;;;;;;5015566;28;20541;-76
2021/01/18 03:59:25;;;;;;;19.70;11.13;;;;;;;;;;5008156;28;20664;-75
2021/01/18 04:02:29;;;;;;;18.03;10.27;;;;;;;;;;5016304;28;20552;-75
2021/01/18 04:05:34;;;;;;;15.60;10.30;;;;;;;;;;5015751;28;20620;-75
2021/01/18 04:08:38;;;;;;;13.50;9.37;;;;;;;;;;5005597;28;20645;-75
2021/01/18 04:11:42;;;;;;;14.47;8.87;;;;;;;;;;4996323;28;20854;-75
2021/01/18 04:14:46;;;;;;;15.70;9.40;;;;;;;;;;4996765;28;20542;-75
2021/01/18 04:17:53;;;;;;;12.73;8.77;;;;;;;;;;4999243;28;20596;-75
2021/01/18 04:20:57;;;;;;;13.57;8.50;;;;;;;;;;5015952;28;20541;-75
2021/01/18 04:24:01;;;;;;;13.40;8.37;;;;;;;;;;5004235;28;20625;-75
2021/01/18 04:27:09;;;;;;;13.83;8.30;;;;;;;;;;4990185;28;20639;-75
2021/01/18 04:30:15;;;;;;;12.50;8.27;;;;;;;;;;5015768;28;20984;-75
2021/01/18 04:33:19;;;;;;;13.70;8.47;;;;;;;;;;5025452;22;20691;-70
2021/01/18 04:36:23;;;;;;;12.67;8.40;;;;;;;;;;5015806;28;20600;-70
2021/01/18 04:39:27;;;;;;;14.30;9.57;;;;;;;;;;5004257;28;20620;-71
2021/01/18 04:42:32;;;;;;;13.47;8.67;;;;;;;;;;4995830;28;20581;-70
2021/01/18 04:45:37;;;;;;;12.60;8.57;;;;;;;;;;4996078;28;20589;-71
2021/01/18 04:48:41;;;;;;;16.03;8.90;;;;;;;;;;4995715;28;20648;-70
2021/01/18 04:51:48;;;;;;;13.10;8.37;;;;;;;;;;4995887;28;20546;-71
2021/01/18 04:54:54;;;;;;;11.83;7.80;;;;;;;;;;4995177;28;20542;-70
2021/01/18 04:58:03;;;;;;;13.93;8.73;;;;;;;;;;4995727;28;20554;-71
2021/01/18 05:01:15;;;;;;;13.30;8.10;;;;;;;;;;4995829;28;20554;-71
2021/01/18 05:04:27;;;;;;;14.37;8.33;;;;;;;;;;4984299;28;20629;-71
2021/01/18 05:07:35;;;;;;;12.03;8.27;;;;;;;;;;4995051;28;20617;-71
2021/01/18 05:10:41;;;;;;;14.30;8.13;;;;;;;;;;4995303;28;20593;-71
2021/01/18 05:13:46;;;;;;;13.07;8.03;;;;;;;;;;4995241;28;20585;-71
2021/01/18 05:16:55;;;;;;;15.93;8.37;;;;;;;;;;4995140;28;20553;-71
2021/01/18 05:19:59;;;;;;;11.83;8.17;;;;;;;;;;4994443;28;21199;-71
2021/01/18 05:23:07;;;;;;;14.90;8.90;;;;;;;;;;4994975;28;20617;-71
2021/01/18 05:26:19;;;;;;;12.50;8.37;;;;;;;;;;4994371;28;20649;-71
2021/01/18 05:29:29;;;;;;;11.70;8.13;;;;;;;;;;4976006;28;20617;-71
2021/01/18 05:32:33;;;;;;;15.70;8.63;;;;;;;;;;4993149;28;20629;-71
2021/01/18 05:35:39;;;;;;;13.27;8.13;;;;;;;;;;4994924;28;20582;-71
2021/01/18 05:38:47;;;;;;;14.57;7.47;;;;;;;;;;4994181;28;20656;-71
2021/01/18 05:41:53;;;;;;;12.93;8.07;;;;;;;;;;4985038;28;20590;-74
2021/01/18 05:44:57;;;;;;;11.60;8.13;;;;;;;;;;4990339;28;20629;-75
2021/01/18 05:48:03;;;;;;;13.83;8.20;;;;;;;;;;4994682;28;21096;-75
2021/01/18 05:51:08;;;;;;;12.67;7.70;;;;;;;;;;4993932;28;20574;-75
2021/01/18 05:54:12;;;;;;;13.73;7.43;;;;;;;;;;4974743;28;20543;-75
2021/01/18 05:57:17;;;;;;;11.77;7.43;;;;;;;;;;4986495;28;20601;-75
2021/01/18 06:00:32;;;;;;;11.40;7.73;;;;;;;;;;4994012;28;20632;-75
2021/01/18 06:03:37;;;;;;;11.60;7.80;;;;;;;;;;4974792;28;20543;-75
2021/01/18 06:06:43;;;;;;;12.20;8.47;;;;;;;;;;4977445;28;20570;-76
2021/01/18 06:09:49;;;;;;;13.03;7.73;;;;;;;;;;4993319;28;20989;-75
2021/01/18 06:12:53;;;;;;;15.97;8.37;;;;;;;;;;4981973;28;20605;-77
2021/01/18 06:16:01;;;;;;;15.97;8.40;;;;;;;;;;4975653;28;20551;-74
2021/01/18 06:19:08;;;;;;;11.10;7.63;;;;;;;;;;4992288;28;20620;-75
2021/01/18 06:22:24;;;;;;;15.80;10.37;;;;;;;;;;4992181;28;20613;-74
2021/01/18 06:25:33;;;;;;;13.37;8.43;;;;;;;;;;4993962;28;20638;-75
2021/01/18 06:28:38;;;;;;;14.03;8.83;;;;;;;;;;4993811;28;20653;-75
2021/01/18 06:31:45;;;;;;;12.50;8.50;;;;;;;;;;4993190;28;20561;-75
2021/01/18 06:34:57;;;;;;;13.57;8.63;;;;;;;;;;4991313;28;20605;-74
2021/01/18 06:38:06;;;;;;;15.13;9.40;;;;;;;;;;4974159;28;20598;-75
2021/01/18 06:41:12;;;;;;;18.60;9.53;;;;;;;;;;4974205;28;20875;-75
2021/01/18 06:44:16;;;;;;;13.73;9.07;;;;;;;;;;4974721;28;20559;-75
2021/01/18 06:47:32;;;;;;;14.67;9.03;;;;;;;;;;4973042;28;20626;-75
2021/01/18 06:50:39;;;;;;;14.80;8.87;;;;;;;;;;4971440;28;21182;-75
2021/01/18 06:53:47;;;;;;;14.40;9.47;;;;;;;;;;4993966;28;20589;-75
2021/01/18 06:57:01;;;;;;;15.23;9.83;;;;;;;;;;4993518;28;20585;-75
2021/01/18 07:00:06;;;;;;;13.30;9.00;;;;;;;;;;4993698;28;20977;-75
2021/01/18 07:03:43;;;;;;;13.53;9.47;;;;;;;;;;4981799;28;20582;-76
2021/01/18 07:06:58;;;;;;;14.33;9.30;;;;;;;;;;4987160;28;20664;-76
2021/01/18 07:10:07;;;;;;;13.03;9.87;;;;;;;;;;4992787;28;20625;-76
2021/01/18 07:13:11;;;;;;;14.37;9.43;;;;;;;;;;4962295;28;20898;-76
2021/01/18 07:16:20;;;;;;;14.17;9.47;;;;;;;;;;4973646;28;20546;-76
2021/01/18 07:19:29;;;;;;;15.53;9.87;;;;;;;;;;4964167;28;21203;-76
2021/01/18 07:22:54;;;;;;;14.07;9.50;;;;;;;;;;4994220;28;20550;-77
2021/01/18 07:26:16;;;;;;;14.83;10.20;;;;;;;;;;4982146;28;20605;-77
2021/01/18 07:29:23;;;;;;;16.60;9.90;;;;;;;;;;4994560;28;20973;-77
2021/01/18 07:32:28;;;;;;;12.53;9.53;;;;;;;;;;4985584;28;20957;-77
2021/01/18 07:35:34;;;;;;;16.17;10.23;;;;;;;;;;4985733;28;20585;-77
2021/01/18 07:38:38;;;;;;;16.30;10.03;;;;;;;;;;4996843;28;20624;-77
2021/01/18 07:41:43;;;;;;;18.77;10.13;;;;;;;;;;4986218;28;21064;-78
2021/01/18 07:45:08;;;;;;;13.13;9.43;;;;;;;;;;4975768;28;20622;-78
2021/01/18 07:48:12;;;;;;;15.37;9.33;;;;;;;;;;5015200;28;20924;-77
2021/01/18 07:51:27;;;;;;;16.03;12.20;;;;;;;;;;5005044;28;20561;-76
2021/01/18 07:54:33;;;;;;;16.83;11.30;;;;;;;;;;5017014;28;21055;-76
2021/01/18 07:57:39;;;;;;;14.57;10.97;;;;;;;;;;5015862;28;20604;-76
2021/01/18 08:00:48;;;;;;;16.37;10.90;;;;;;;;;;5015753;28;20959;-76
2021/01/18 08:03:52;;;;;;;15.40;11.37;;;;;;;;;;5003183;28;20617;-76
2021/01/18 08:07:07;;;;;;;13.17;10.00;;;;;;;;;;5002168;28;20746;-75
2021/01/18 08:10:11;;;;;;;15.73;12.13;;;;;;;;;;4986088;28;20625;-75
2021/01/18 08:13:40;;;;;;;13.57;9.67;;;;;;;;;;5016000;28;20585;-74
2021/01/18 08:16:45;;;;;;;13.37;10.00;;;;;;;;;;5016182;28;20545;-74
2021/01/18 08:20:09;;;;;;;21.13;14.37;;;;;;;;;;5016351;28;20616;-74
2021/01/18 08:23:42;;;;;;;20.20;12.90;;;;;;;;;;5016463;28;20545;-74
2021/01/18 08:27:02;;;;;;;14.37;10.33;;;;;;;;;;5015111;28;20604;-74
2021/01/18 08:30:22;;;;;;;12.13;8.23;;;;;;;;;;5016304;28;20628;-74
2021/01/18 08:33:27;;;;;;;9.73;7.73;;;;;;;;;;5016252;28;20604;-75
2021/01/18 08:36:32;;;;;;;15.93;9.37;;;;;;;;;;5015971;28;20541;-74
2021/01/18 08:39:38;;;;;;;14.83;9.47;;;;;;;;;;5015607;28;20624;-74
2021/01/18 08:42:44;;;;;;;14.07;8.60;;;;;;;;;;4996291;28;21095;-74
2021/01/18 08:45:55;;;;;;;12.27;8.80;;;;;;;;;;4995518;28;20613;-73
2021/01/18 08:49:23;;;;;;;12.97;10.23;;;;;;;;;;4995397;28;20625;-74
2021/01/18 08:52:30;;;;;;;15.70;10.97;;;;;;;;;;4995574;28;20530;-74
2021/01/18 08:55:36;;;;;;;14.23;11.40;;;;;;;;;;4996488;28;21107;-73
2021/01/18 08:58:44;;;;;;;16.70;14.43;;;;;;;;;;4995922;28;20617;-73
2021/01/18 09:01:59;;;;;;;10.37;9.00;;;;;;;;;;5006155;28;20894;-73
2021/01/18 09:05:21;;;;;;;13.20;8.37;;;;;;;;;;5013054;28;21178;-73
2021/01/18 09:08:27;;;;;;;12.43;8.37;;;;;;;;;;5011891;28;20588;-74
2021/01/18 09:11:32;;;;;;;13.73;9.97;;;;;;;;;;5013341;28;20584;-73
2021/01/18 09:14:36;;;;;;;16.60;12.43;;;;;;;;;;5015527;28;20545;-74
2021/01/18 09:17:40;;;;;;;19.77;13.10;;;;;;;;;;5014908;28;20553;-73
2021/01/18 09:20:45;;;;;;;21.57;13.33;;;;;;;;;;5019063;28;20660;-72
2021/01/18 09:23:50;;;;;;;14.87;9.70;;;;;;;;;;5033527;28;20579;-73
2021/01/18 09:26:54;;;;;;;17.03;11.10;;;;;;;;;;5034081;28;20595;-74
2021/01/18 09:30:11;;;;;;;16.53;10.33;;;;;;;;;;5034439;28;21241;-73
2021/01/18 09:33:15;;;;;;;19.70;14.50;;;;;;;;;;5034406;28;20630;-73
2021/01/18 09:36:22;;;;;;;27.77;19.50;;;;;;;;;;5023190;28;20920;-73
2021/01/18 09:39:27;;;;;;;11.67;8.20;;;;;;;;;;5014642;28;21213;-73
2021/01/18 09:42:31;;;;;;;10.93;8.03;;;;;;;;;;5026121;28;20630;-72
2021/01/18 09:45:36;;;;;;;12.63;8.53;;;;;;;;;;5015061;28;20540;-73
2021/01/18 09:48:40;;;;;;;12.47;9.00;;;;;;;;;;5014577;28;20620;-73
2021/01/18 09:51:45;;;;;;;16.03;9.27;;;;;;;;;;5004127;28;20622;-73
2021/01/18 09:54:51;;;;;;;10.13;7.00;;;;;;;;;;5032289;28;20579;-74
2021/01/18 09:58:02;;;;;;;9.33;6.90;;;;;;;;;;5015002;28;20580;-73
2021/01/18 10:01:18;;;;;;;9.33;6.90;;;;;;;;;;5033177;28;20591;-72
2021/01/18 10:04:23;;;;;;;11.73;7.50;;;;;;;;;;5018045;28;21139;-71
2021/01/18 10:07:29;;;;;;;10.60;7.07;;;;;;;;;;5013689;28;20988;-71
2021/01/18 10:10:41;;;;;;;9.67;7.13;;;;;;;;;;5024665;28;20626;-72
2021/01/18 10:14:00;;;;;;;15.23;8.90;;;;;;;;;;5033915;28;20552;-72
2021/01/18 10:17:09;;;;;;;14.07;9.57;;;;;;;;;;5033671;28;20552;-72
2021/01/18 10:20:13;;;;;;;12.13;8.50;;;;;;;;;;5033564;28;20622;-73
2021/01/18 10:23:17;;;;;;;14.70;10.67;;;;;;;;;;5033006;28;20544;-74
2021/01/18 10:26:27;;;;;;;32.80;16.73;;;;;;;;;;5032577;28;20643;-74
2021/01/18 10:29:33;;;;;;;29.47;17.60;;;;;;;;;;5033182;28;20975;-74
2021/01/18 10:32:41;;;;;;;34.53;18.37;;;;;;;;;;5033389;28;20623;-74
2021/01/18 10:35:46;;;;;;;32.23;16.47;;;;;;;;;;5034417;28;21059;-75
2021/01/18 10:38:50;;;;;;;24.80;13.33;;;;;;;;;;5032558;28;21208;-74
2021/01/18 10:42:03;;;;;;;23.40;13.23;;;;;;;;;;5033261;28;20584;-74
2021/01/18 10:45:08;;;;;;;20.00;10.67;;;;;;;;;;5032679;28;20563;-74
2021/01/18 10:48:14;;;;;;;16.07;10.13;;;;;;;;;;5024470;28;20596;-73
2021/01/18 10:51:27;;;;;;;19.50;12.23;;;;;;;;;;5013162;28;20533;-74
2021/01/18 10:54:32;;;;;;;23.00;13.50;;;;;;;;;;5024197;28;20592;-74
2021/01/18 10:57:41;;;;;;;34.73;16.03;;;;;;;;;;5024156;28;20553;-74
2021/01/18 11:00:46;;;;;;;22.27;11.23;;;;;;;;;;5024061;28;20560;-75
2021/01/18 11:03:51;;;;;;;24.43;12.67;;;;;;;;;;5014046;28;20595;-74
2021/01/18 11:06:56;;;;;;;22.53;11.47;;;;;;;;;;5017480;28;20651;-74
2021/01/18 11:10:00;;;;;;;19.13;9.37;;;;;;;;;;5017394;28;21178;-74
2021/01/18 11:13:16;;;;;;;22.90;11.43;;;;;;;;;;5045781;28;20971;-73
2021/01/18 11:16:20;;;;;;;31.37;15.77;;;;;;;;;;5036896;28;20556;-74
2021/01/18 11:19:25;;;;;;;29.00;13.13;;;;;;;;;;5037250;28;20630;-77
2021/01/18 11:22:29;;;;;;;24.23;11.90;;;;;;;;;;5026813;28;21171;-79
2021/01/18 11:25:33;;;;;;;15.33;8.53;;;;;;;;;;5017441;28;20592;-79
2021/01/18 11:28:37;;;;;;;12.83;6.17;;;;;;;;;;5033542;28;20635;-79
2021/01/18 11:31:45;;;;;;;12.03;7.47;;;;;;;;;;5018701;28;20557;-79
2021/01/18 11:34:49;;;;;;;11.80;6.30;;;;;;;;;;5025256;28;20603;-76
2021/01/18 11:37:54;;;;;;;9.40;5.40;;;;;;;;;;5024710;28;20599;-78
2021/01/18 11:40:58;;;;;;;9.57;4.90;;;;;;;;;;5036002;28;20947;-76
2021/01/18 11:44:05;;;;;;;6.13;4.93;;;;;;;;;;5035597;28;21133;-75
2021/01/18 11:47:09;;;;;;;15.13;6.27;;;;;;;;;;5023976;28;21217;-73
2021/01/18 11:50:14;;;;;;;10.57;6.23;;;;;;;;;;5028353;28;20639;-72
2021/01/18 11:53:19;;;;;;;10.57;6.43;;;;;;;;;;5030361;28;20947;-72
2021/01/18 11:56:30;;;;;;;10.83;7.13;;;;;;;;;;5035325;28;20623;-73
2021/01/18 11:59:34;;;;;;;13.87;7.70;;;;;;;;;;5037465;28;20651;-78
2021/01/18 12:02:39;;;;;;;16.03;8.73;;;;;;;;;;5012680;28;20591;-75
2021/01/18 12:05:43;;;;;;;12.83;6.20;;;;;;;;;;5035684;28;20580;-74
2021/01/18 12:08:49;;;;;;;7.83;5.73;;;;;;;;;;5035039;28;20951;-73
2021/01/18 12:11:56;;;;;;;8.73;5.03;;;;;;;;;;5050565;22;20686;-72
2021/01/18 12:15:00;;;;;;;7.60;4.43;;;;;;;;;;5034845;28;20600;-72
2021/01/18 12:18:05;;;;;;;8.97;4.90;;;;;;;;;;5035818;28;20629;-72
2021/01/18 12:21:09;;;;;;;6.83;4.20;;;;;;;;;;5035615;28;20595;-72
2021/01/18 12:24:14;;;;;;;10.57;4.90;;;;;;;;;;5022565;28;20583;-72
2021/01/18 12:27:18;;;;;;;6.20;4.23;;;;;;;;;;5036150;28;20595;-72
2021/01/18 12:30:23;;;;;;;8.50;4.60;;;;;;;;;;5035268;28;20642;-72
2021/01/18 12:33:27;;;;;;;12.07;4.57;;;;;;;;;;5035860;28;20544;-72
2021/01/18 12:36:32;;;;;;;6.73;4.53;;;;;;;;;;5035433;28;20536;-72
2021/01/18 12:39:36;;;;;;;7.57;4.47;;;;;;;;;;5035130;28;20647;-73
2021/01/18 12:42:43;;;;;;;7.83;4.87;;;;;;;;;;5035378;28;20536;-72
2021/01/18 12:45:48;;;;;;;6.80;4.87;;;;;;;;;;5034678;28;20587;-72
2021/01/18 12:48:52;;;;;;;7.77;4.37;;;;;;;;;;5023166;28;21192;-71
2021/01/18 12:51:57;;;;;;;6.53;4.37;;;;;;;;;;5034990;28;21149;-71
2021/01/18 12:55:01;;;;;;;20.77;10.23;;;;;;;;;;5034693;28;20619;-71
2021/01/18 12:58:05;;;;;;;35.90;13.23;;;;;;;;;;5023313;28;20532;-71
2021/01/18 13:01:09;;;;;;;11.00;5.33;;;;;;;;;;5034794;28;20963;-72
2021/01/18 13:04:14;;;;;;;17.87;7.63;;;;;;;;;;5034524;28;21141;-72
2021/01/18 13:07:19;;;;;;;39.30;13.43;;;;;;;;;;5034796;28;20623;-72
2021/01/18 13:10:23;;;;;;;83.70;28.80;;;;;;;;;;5034962;28;20627;-72
2021/01/18 13:13:27;;;;;;;24.13;11.90;;;;;;;;;;5034657;28;20623;-72
2021/01/18 13:16:32;;;;;;;9.10;5.77;;;;;;;;;;5034045;28;21046;-72
2021/01/18 13:19:36;;;;;;;7.87;4.27;;;;;;;;;;5021775;28;20635;-73
2021/01/18 13:22:41;;;;;;;5.50;4.30;;;;;;;;;;5022229;28;20607;-73
2021/01/18 13:25:45;;;;;;;8.33;4.63;;;;;;;;;;5035154;28;20544;-73
2021/01/18 13:28:51;;;;;;;6.73;4.37;;;;;;;;;;5033972;28;20651;-74
2021/01/18 13:31:56;;;;;;;6.83;4.60;;;;;;;;;;5022409;28;20552;-70
2021/01/18 13:35:00;;;;;;;7.73;4.37;;;;;;;;;;5022137;28;20595;-71
2021/01/18 13:38:04;;;;;;;8.80;4.43;;;;;;;;;;5034898;28;21050;-70
2021/01/18 13:41:12;;;;;;;43.47;22.50;;;;;;;;;;5033422;28;20583;-70
2021/01/18 13:44:16;;;;;;;45.30;26.90;;;;;;;;;;5002535;28;20545;-70
2021/01/18 13:47:20;;;;;;;9.53;6.50;;;;;;;;;;5019354;28;20624;-70
2021/01/18 13:50:25;;;;;;;30.70;15.90;;;;;;;;;;5014502;28;20990;-70
2021/01/18 13:53:29;;;;;;;41.83;20.13;;;;;;;;;;5025502;28;20576;-70
2021/01/18 13:56:33;;;;;;;33.10;17.63;;;;;;;;;;5014318;28;20599;-70
2021/01/18 13:59:38;;;;;;;24.97;14.53;;;;;;;;;;5014338;28;20964;-70
2021/01/18 14:02:42;;;;;;;10.37;6.23;;;;;;;;;;5032717;28;20622;-70
2021/01/18 14:05:46;;;;;;;9.90;4.77;;;;;;;;;;5030383;28;20571;-70
2021/01/18 14:08:51;;;;;;;6.40;4.00;;;;;;;;;;5034188;28;20655;-74
2021/01/18 14:11:55;;;;;;;7.77;4.80;;;;;;;;;;5002043;28;20617;-75
2021/01/18 14:14:59;;;;;;;8.93;4.97;;;;;;;;;;5032667;28;20981;-74
2021/01/18 14:18:04;;;;;;;7.00;4.30;;;;;;;;;;5033252;28;20715;-74
2021/01/18 14:21:13;;;;;;;6.77;4.27;;;;;;;;;;5033692;28;20540;-74
2021/01/18 14:24:18;;;;;;;10.27;6.23;;;;;;;;;;5033867;28;20548;-74
2021/01/18 14:27:22;;;;;;;5.80;3.97;;;;;;;;;;5014014;28;20588;-74
2021/01/18 14:30:26;;;;;;;6.90;4.10;;;;;;;;;;5006339;28;20982;-74
2021/01/18 14:33:30;;;;;;;6.20;4.07;;;;;;;;;;5034204;28;20544;-74
2021/01/18 14:36:36;;;;;;;8.43;4.27;;;;;;;;;;5032867;28;20619;-74
2021/01/18 14:39:41;;;;;;;8.73;4.70;;;;;;;;;;5033092;28;20635;-74
2021/01/18 14:42:45;;;;;;;9.03;4.50;;;;;;;;;;5020631;28;20579;-74
2021/01/18 14:45:49;;;;;;;9.33;4.70;;;;;;;;;;5021303;28;20587;-74
2021/01/18 14:48:54;;;;;;;7.30;5.10;;;;;;;;;;5032936;28;20668;-74
2021/01/18 14:51:58;;;;;;;66.73;46.87;;;;;;;;;;5021481;28;20544;-74
2021/01/18 14:55:06;;;;;;;14.63;11.93;;;;;;;;;;5033398;28;21157;-74
2021/01/18 14:58:10;;;;;;;7.43;4.83;;;;;;;;;;5021070;28;20536;-74
2021/01/18 15:01:22;;;;;;;6.50;4.80;;;;;;;;;;5032926;28;21167;-74
2021/01/18 15:04:27;;;;;;;9.70;5.90;;;;;;;;;;5009869;28;20596;-74
2021/01/18 15:07:38;;;;;;;16.73;9.57;;;;;;;;;;5021069;28;20979;-74
2021/01/18 15:10:42;;;;;;;15.20;9.50;;;;;;;;;;5020504;28;20599;-75
2021/01/18 15:13:48;;;;;;;11.30;7.40;;;;;;;;;;5032687;28;20603;-74
2021/01/18 15:16:52;;;;;;;13.13;7.83;;;;;;;;;;5033462;28;20544;-74
2021/01/18 15:19:56;;;;;;;10.53;7.33;;;;;;;;;;5033335;28;20614;-75
2021/01/18 15:23:01;;;;;;;9.73;6.93;;;;;;;;;;5013470;28;20861;-74
2021/01/18 15:26:08;;;;;;;13.50;6.80;;;;;;;;;;5017437;28;20588;-74
2021/01/18 15:29:12;;;;;;;9.97;5.10;;;;;;;;;;5032825;28;20659;-74
2021/01/18 15:32:16;;;;;;;8.97;4.93;;;;;;;;;;5009625;28;20560;-74
2021/01/18 15:35:22;;;;;;;7.37;4.50;;;;;;;;;;5020230;28;20614;-74
2021/01/18 15:38:26;;;;;;;6.87;4.30;;;;;;;;;;5032621;28;20595;-75
2021/01/18 15:41:30;;;;;;;7.73;4.13;;;;;;;;;;5032854;28;20593;-73
2021/01/18 15:44:34;;;;;;;5.27;3.83;;;;;;;;;;5032618;28;20623;-73
2021/01/18 15:47:39;;;;;;;6.60;4.20;;;;;;;;;;5032467;28;20651;-73
2021/01/18 15:50:43;;;;;;;11.37;5.40;;;;;;;;;;5034692;28;20910;-73
2021/01/18 15:53:49;;;;;;;24.97;13.83;;;;;;;;;;5036149;28;20552;-73
2021/01/18 15:56:56;;;;;;;44.13;23.53;;;;;;;;;;5036480;28;20540;-73
2021/01/18 16:00:00;;;;;;;26.37;13.50;;;;;;;;;;5036040;28;21013;-73
2021/01/18 16:03:04;;;;;;;12.57;7.43;;;;;;;;;;5027117;28;20625;-73
2021/01/18 16:06:09;;;;;;;26.37;17.03;;;;;;;;;;5021892;28;20579;-73
2021/01/18 16:09:14;;;;;;;16.93;10.83;;;;;;;;;;5023674;28;20666;-73
2021/01/18 16:12:18;;;;;;;15.67;8.80;;;;;;;;;;5035529;28;20995;-73
2021/01/18 16:15:22;;;;;;;8.63;5.40;;;;;;;;;;5035811;28;20611;-73
2021/01/18 16:18:26;;;;;;;8.97;5.70;;;;;;;;;;5035814;28;20531;-73
2021/01/18 16:21:41;;;;;;;17.57;9.90;;;;;;;;;;5013159;28;20539;-73
2021/01/18 16:24:45;;;;;;;19.57;11.27;;;;;;;;;;5023288;28;20603;-73
2021/01/18 16:27:50;;;;;;;12.17;6.70;;;;;;;;;;5012345;28;20634;-73
2021/01/18 16:30:54;;;;;;;19.67;16.30;;;;;;;;;;5035066;28;20595;-73
2021/01/18 16:33:58;;;;;;;14.43;10.10;;;;;;;;;;5035312;28;20611;-73
2021/01/18 16:37:06;;;;;;;8.70;5.97;;;;;;;;;;5034947;28;20579;-73
2021/01/18 16:40:12;;;;;;;16.33;13.17;;;;;;;;;;5035716;28;20982;-73
2021/01/18 16:43:18;;;;;;;12.60;9.33;;;;;;;;;;5035529;28;20599;-73
2021/01/18 16:46:24;;;;;;;12.87;9.13;;;;;;;;;;5035791;28;20591;-73
2021/01/18 16:49:29;;;;;;;20.23;12.17;;;;;;;;;;5015620;28;20656;-73
2021/01/18 16:52:33;;;;;;;17.43;12.37;;;;;;;;;;5014576;28;20553;-73
2021/01/18 16:55:38;;;;;;;18.00;13.17;;;;;;;;;;5015755;28;20541;-73
2021/01/18 16:58:46;;;;;;;23.40;15.50;;;;;;;;;;5030578;28;20651;-70
2021/01/18 17:02:04;;;;;;;22.10;16.70;;;;;;;;;;5033841;28;20556;-70
2021/01/18 17:05:10;;;;;;;20.17;13.13;;;;;;;;;;5034759;28;20587;-70
2021/01/18 17:08:15;;;;;;;22.73;12.67;;;;;;;;;;5034614;28;20627;-70
2021/01/18 17:11:19;;;;;;;15.50;9.60;;;;;;;;;;5034956;28;20611;-70
2021/01/18 17:14:24;;;;;;;13.07;8.10;;;;;;;;;;5035392;28;21082;-70
2021/01/18 17:17:28;;;;;;;12.03;7.33;;;;;;;;;;5034558;28;20591;-70
2021/01/18 17:20:32;;;;;;;14.00;6.60;;;;;;;;;;5015019;28;20619;-70
2021/01/18 17:23:41;;;;;;;13.30;9.17;;;;;;;;;;5014692;28;20533;-70
2021/01/18 17:26:46;;;;;;;14.37;7.77;;;;;;;;;;5019131;28;20591;-70
2021/01/18 17:29:50;;;;;;;10.50;6.50;;;;;;;;;;5032706;28;20647;-71
2021/01/18 17:32:54;;;;;;;11.13;7.37;;;;;;;;;;5034125;28;20584;-71
2021/01/18 17:35:59;;;;;;;8.80;5.73;;;;;;;;;;5033901;28;20588;-71
2021/01/18 17:39:04;;;;;;;12.47;6.20;;;;;;;;;;5031812;28;21209;-70
2021/01/18 17:42:09;;;;;;;10.73;6.30;;;;;;;;;;5021541;28;20588;-71
2021/01/18 17:45:14;;;;;;;16.50;12.10;;;;;;;;;;5012699;28;20603;-71
2021/01/18 17:48:18;;;;;;;10.83;6.57;;;;;;;;;;5033934;28;20595;-71
2021/01/18 17:51:23;;;;;;;10.97;6.57;;;;;;;;;;5018580;28;20580;-70
2021/01/18 17:54:27;;;;;;;12.83;5.60;;;;;;;;;;5034235;28;21129;-70
2021/01/18 17:57:31;;;;;;;11.77;7.57;;;;;;;;;;5034160;28;20602;-70
2021/01/18 18:00:35;;;;;;;12.23;10.27;;;;;;;;;;5021383;28;20643;-70
2021/01/18 18:03:39;;;;;;;16.40;11.57;;;;;;;;;;5033451;28;20584;-70
2021/01/18 18:06:43;;;;;;;11.30;6.80;;;;;;;;;;5021817;28;20588;-70
2021/01/18 18:09:47;;;;;;;11.73;6.53;;;;;;;;;;5009850;28;20671;-70
2021/01/18 18:12:52;;;;;;;9.97;6.30;;;;;;;;;;5033042;28;20631;-70
2021/01/18 18:15:56;;;;;;;11.67;5.77;;;;;;;;;;5033278;28;20967;-70
2021/01/18 18:19:01;;;;;;;10.00;6.60;;;;;;;;;;5033498;28;20651;-70
2021/01/18 18:22:05;;;;;;;8.73;5.77;;;;;;;;;;5033146;28;20587;-70